Time;durP1;ratioP1;P1;durP2;ratioP2;P2;SDS_P1;SDS_P2;PMS_P1;PMS_P2;Temp;Humidity;BMP_temperature;BMP_pressure;BME280_temperature;BME280_humidity;BME280_pressure;Samples;Min_cycle;Max_cycle;Signal;HPM_P1;HPM_P2
2022/01/27 00:05:11;;;;;;;48.30;21.33;;;4.50;91.20;;;;;;6213886;23;20012;-60
2022/01/27 00:07:37;;;;;;;68.47;22.70;;;4.50;91.20;;;;;;6216993;23;20000;-62
2022/01/27 00:10:24;;;;;;;68.75;23.40;;;4.50;91.20;;;;;;6189959;23;20015;-61
2022/01/27 00:12:51;;;;;;;61.38;21.65;;;4.50;91.20;;;;;;6240219;23;20351;-60
2022/01/27 00:15:17;;;;;;;71.60;23.45;;;4.50;91.20;;;;;;6213373;23;20004;-61
2022/01/27 00:17:55;;;;;;;65.35;23.27;;;4.40;91.20;;;;;;6241631;23;20438;-60
2022/01/27 00:20:21;;;;;;;71.22;22.02;;;4.40;91.20;;;;;;6218405;23;20004;-61
2022/01/27 00:22:46;;;;;;;63.30;22.25;;;4.40;91.20;;;;;;6214412;23;20371;-60
2022/01/27 00:25:12;;;;;;;52.88;21.45;;;4.40;91.20;;;;;;6239707;23;20367;-63
2022/01/27 00:27:37;;;;;;;68.75;21.85;;;4.40;91.30;;;;;;6212619;23;20019;-61
2022/01/27 00:30:04;;;;;;;63.83;21.85;;;4.40;91.30;;;;;;6189305;23;20007;-62
2022/01/27 00:32:31;;;;;;;66.82;22.38;;;4.30;91.20;;;;;;6214581;23;20012;-62
2022/01/27 00:34:57;;;;;;;66.85;21.02;;;4.30;91.20;;;;;;6164212;23;20418;-61
2022/01/27 00:37:22;;;;;;;52.25;20.75;;;4.30;91.20;;;;;;6240169;23;20328;-62
2022/01/27 00:39:48;;;;;;;60.80;21.90;;;4.30;91.20;;;;;;6212181;23;20012;-61
2022/01/27 00:42:13;;;;;;;57.25;20.10;;;4.30;91.20;;;;;;6211067;23;20015;-62
2022/01/27 00:44:39;;;;;;;58.92;22.27;;;4.30;91.20;;;;;;6241771;23;20472;-60
2022/01/27 00:47:05;;;;;;;53.20;19.23;;;4.20;91.20;;;;;;6214438;23;20505;-60
2022/01/27 00:49:30;;;;;;;57.58;21.73;;;4.30;91.20;;;;;;6241083;23;20008;-60
2022/01/27 00:51:57;;;;;;;56.67;21.40;;;4.30;91.20;;;;;;6238713;23;20004;-61
2022/01/27 00:54:26;;;;;;;48.80;21.70;;;4.20;91.10;;;;;;6239593;23;20004;-62
2022/01/27 00:57:04;;;;;;;64.53;21.30;;;4.20;91.10;;;;;;6214966;23;20430;-62
2022/01/27 01:02:08;;;;;;;54.25;21.98;;;4.30;91.10;;;;;;6214915;23;20039;-60
2022/01/27 01:04:37;;;;;;;58.33;21.88;;;4.20;91.10;;;;;;6193042;23;20088;-62
2022/01/27 01:07:03;;;;;;;47.85;19.75;;;4.20;91.10;;;;;;6212870;23;20004;-60
2022/01/27 01:14:57;;;;;;;50.55;21.00;;;4.10;91.10;;;;;;6217131;23;20071;-62
2022/01/27 01:17:36;;;;;;;49.53;20.13;;;4.10;91.10;;;;;;6212951;23;20270;-62
2022/01/27 01:20:27;;;;;;;42.72;19.50;;;4.10;91.10;;;;;;6238911;23;20004;-60
2022/01/27 01:31:15;;;;;;;44.72;20.98;;;4.10;91.00;;;;;;6239456;23;20054;-60
2022/01/27 01:33:43;;;;;;;39.17;19.48;;;4.00;91.00;;;;;;6193109;23;20156;-61
2022/01/27 01:36:26;;;;;;;43.40;19.10;;;4.10;91.00;;;;;;6165282;23;20088;-61
2022/01/27 01:38:51;;;;;;;39.08;18.52;;;4.00;91.00;;;;;;6196726;23;20079;-61
2022/01/27 01:41:17;;;;;;;51.15;19.38;;;4.00;91.00;;;;;;6214153;23;20004;-62
2022/01/27 01:43:42;;;;;;;44.75;18.95;;;4.00;91.00;;;;;;6239304;23;20006;-60
2022/01/27 01:46:08;;;;;;;37.75;18.00;;;4.00;90.90;;;;;;6212270;23;20075;-59
2022/01/27 01:48:33;;;;;;;37.67;18.15;;;3.90;90.90;;;;;;6240650;23;20085;-62
2022/01/27 01:51:01;;;;;;;46.33;18.88;;;3.90;90.90;;;;;;6213228;23;20263;-60
2022/01/27 01:53:27;;;;;;;39.88;18.50;;;4.00;91.00;;;;;;6214113;23;20084;-63
2022/01/27 01:55:52;;;;;;;41.67;18.77;;;3.90;90.90;;;;;;6212676;23;20512;-60
2022/01/27 01:58:18;;;;;;;44.08;18.60;;;3.90;91.00;;;;;;6161127;23;20016;-61
2022/01/27 02:00:43;;;;;;;38.17;18.50;;;3.90;91.00;;;;;;6187615;23;20000;-62
2022/01/27 02:03:09;;;;;;;51.97;20.42;;;3.90;91.00;;;;;;6213661;23;20001;-62
2022/01/27 02:05:40;;;;;;;46.15;20.65;;;3.80;91.00;;;;;;6189133;23;20011;-60
2022/01/27 02:19:25;;;;;;;36.63;18.98;;;3.80;90.90;;;;;;6213498;23;20031;-59
2022/01/27 02:21:52;;;;;;;38.88;18.98;;;3.80;90.90;;;;;;6239074;23;20007;-62
2022/01/27 02:24:19;;;;;;;37.08;19.40;;;3.80;91.00;;;;;;6237807;23;20060;-61
2022/01/27 02:26:44;;;;;;;31.45;16.85;;;3.80;91.00;;;;;;6162210;23;20306;-62
2022/01/27 02:29:10;;;;;;;34.78;18.20;;;3.80;91.30;;;;;;6213836;23;20064;-62
2022/01/27 02:31:36;;;;;;;40.17;19.15;;;3.80;91.00;;;;;;6187948;23;20062;-61
2022/01/27 02:34:01;;;;;;;37.17;18.63;;;3.80;91.00;;;;;;6212792;23;19997;-62
2022/01/27 02:36:27;;;;;;;34.50;19.50;;;3.80;91.00;;;;;;6237794;23;20402;-60
2022/01/27 02:38:56;;;;;;;38.63;20.02;;;3.80;91.00;;;;;;6211430;23;20408;-62
2022/01/27 02:41:22;;;;;;;30.90;18.65;;;3.70;91.00;;;;;;6213379;23;20034;-62
2022/01/27 02:43:48;;;;;;;38.63;19.15;;;3.70;91.00;;;;;;6188735;23;20398;-61
2022/01/27 02:46:21;;;;;;;34.58;17.60;;;3.70;91.00;;;;;;6240342;23;20004;-62
2022/01/27 02:48:46;;;;;;;34.53;18.58;;;3.70;91.10;;;;;;6187407;23;20000;-61
2022/01/27 02:51:12;;;;;;;30.88;18.40;;;3.70;91.10;;;;;;6238077;23;20000;-63
2022/01/27 02:53:37;;;;;;;33.60;18.48;;;3.60;91.10;;;;;;6187238;23;20417;-62
2022/01/27 02:56:03;;;;;;;36.58;17.88;;;3.70;91.10;;;;;;6213244;23;20016;-59
2022/01/27 02:58:28;;;;;;;40.15;18.95;;;3.70;91.10;;;;;;6239659;23;20027;-61
2022/01/27 03:00:54;;;;;;;37.58;17.70;;;3.70;91.10;;;;;;6239218;23;20011;-60
2022/01/27 03:03:19;;;;;;;33.28;18.63;;;3.70;91.10;;;;;;6185037;23;20008;-61
2022/01/27 03:05:45;;;;;;;30.40;17.65;;;3.60;91.10;;;;;;6186453;23;20008;-62
2022/01/27 03:08:10;;;;;;;27.08;16.95;;;3.60;91.10;;;;;;6212261;23;20083;-62
2022/01/27 03:10:39;;;;;;;36.08;17.42;;;3.60;91.40;;;;;;6188324;23;20322;-61
2022/01/27 03:13:05;;;;;;;32.25;17.77;;;3.70;91.20;;;;;;6211572;23;20000;-61
2022/01/27 03:15:30;;;;;;;34.70;19.02;;;3.60;91.20;;;;;;6210729;23;20437;-61
2022/01/27 03:17:56;;;;;;;31.92;18.48;;;3.60;91.20;;;;;;6185344;23;20000;-60
2022/01/27 03:20:21;;;;;;;28.00;18.13;;;3.70;91.20;;;;;;6213502;23;20001;-60
2022/01/27 03:22:47;;;;;;;31.83;19.42;;;3.60;91.20;;;;;;6240411;23;20426;-63
2022/01/27 03:25:12;;;;;;;36.65;18.90;;;3.60;91.20;;;;;;6239588;23;20039;-61
2022/01/27 03:27:45;;;;;;;31.65;17.73;;;3.60;91.20;;;;;;6211788;23;20011;-60
2022/01/27 03:30:10;;;;;;;33.88;17.45;;;3.60;91.20;;;;;;6187148;23;20383;-63
2022/01/27 03:32:36;;;;;;;27.80;17.33;;;3.50;91.20;;;;;;6212467;23;20004;-60
2022/01/27 03:35:01;;;;;;;30.23;17.02;;;3.50;91.20;;;;;;6213453;23;20004;-61
2022/01/27 03:37:27;;;;;;;36.05;18.58;;;3.50;91.20;;;;;;6213242;23;20136;-61
2022/01/27 03:39:52;;;;;;;33.45;17.45;;;3.50;91.10;;;;;;6237694;23;20142;-62
2022/01/27 03:42:18;;;;;;;29.98;18.02;;;3.50;91.20;;;;;;6185834;23;20035;-60
2022/01/27 03:44:44;;;;;;;29.83;16.45;;;3.50;91.20;;;;;;6211434;23;20103;-60
2022/01/27 03:47:09;;;;;;;30.52;17.05;;;3.50;91.10;;;;;;6240526;23;20159;-61
2022/01/27 03:49:35;;;;;;;27.77;16.48;;;3.50;91.20;;;;;;6240127;23;20400;-61
2022/01/27 03:52:01;;;;;;;35.45;17.17;;;3.40;91.10;;;;;;6187760;23;20062;-60
2022/01/27 03:54:27;;;;;;;29.83;16.40;;;3.50;91.10;;;;;;6210967;23;19996;-60
2022/01/27 03:56:53;;;;;;;34.40;17.23;;;3.50;91.10;;;;;;6185563;23;20016;-60
2022/01/27 03:59:18;;;;;;;25.95;16.48;;;3.40;91.10;;;;;;6213083;23;20071;-61
2022/01/27 04:01:44;;;;;;;27.88;16.67;;;3.40;91.10;;;;;;6239403;23;20402;-62
2022/01/27 04:04:09;;;;;;;29.15;17.92;;;3.40;91.10;;;;;;6187255;23;20000;-61
2022/01/27 04:06:39;;;;;;;27.92;16.83;;;3.40;91.10;;;;;;6238202;23;20007;-60
2022/01/27 04:09:06;;;;;;;30.42;17.33;;;3.40;91.10;;;;;;6237116;23;20418;-61
2022/01/27 04:11:32;;;;;;;31.50;18.70;;;3.40;91.10;;;;;;6210908;23;20000;-60
2022/01/27 04:13:58;;;;;;;34.42;19.10;;;3.40;91.10;;;;;;6188495;23;20058;-61
2022/01/27 04:16:23;;;;;;;33.78;19.80;;;3.40;91.00;;;;;;6212667;23;20008;-60
2022/01/27 04:18:49;;;;;;;26.98;16.67;;;3.40;91.00;;;;;;6186885;23;20079;-61
2022/01/27 04:21:15;;;;;;;27.77;17.85;;;3.40;91.00;;;;;;6210561;23;20103;-62
2022/01/27 04:23:40;;;;;;;27.98;18.67;;;3.30;91.00;;;;;;6186462;23;20167;-59
2022/01/27 04:26:07;;;;;;;28.05;17.83;;;3.30;91.00;;;;;;6187794;23;20122;-61
2022/01/27 04:28:35;;;;;;;27.85;17.40;;;3.30;91.00;;;;;;6240381;23;20337;-62
2022/01/27 04:31:04;;;;;;;34.25;17.65;;;3.30;91.00;;;;;;6164556;23;20027;-59
2022/01/27 04:33:32;;;;;;;30.27;17.80;;;3.30;91.00;;;;;;6237504;23;20460;-60
2022/01/27 04:36:00;;;;;;;25.38;16.17;;;3.30;91.00;;;;;;6186692;23;20012;-62
2022/01/27 04:41:19;;;;;;;31.58;17.77;;;3.30;91.00;;;;;;6188109;23;20000;-62
2022/01/27 04:43:52;;;;;;;26.38;17.08;;;3.30;91.00;;;;;;6217085;23;20012;-62
2022/01/27 04:48:52;;;;;;;27.60;17.73;;;3.20;91.00;;;;;;6185747;23;20445;-62
2022/01/27 04:51:20;;;;;;;27.58;17.45;;;3.20;91.00;;;;;;6239242;23;20130;-61
2022/01/27 04:54:13;;;;;;;28.10;17.30;;;3.20;91.00;;;;;;6189328;23;20008;-62
2022/01/27 04:56:34;;;;;;;25.50;16.73;;;3.10;91.00;;;;;;6209043;23;20021;-61
2022/01/27 04:59:04;;;;;;;26.85;16.40;;;3.10;90.90;;;;;;6208415;23;20039;-62
2022/01/27 05:01:38;;;;;;;25.63;16.45;;;3.20;91.00;;;;;;6207792;23;20023;-60
2022/01/27 05:04:10;;;;;;;26.25;16.88;;;3.10;91.00;;;;;;6210281;23;20004;-62
2022/01/27 05:06:35;;;;;;;27.20;16.48;;;3.20;91.00;;;;;;6208835;23;20004;-61
2022/01/27 05:09:01;;;;;;;23.23;16.13;;;3.20;91.00;;;;;;6208354;23;20650;-61
2022/01/27 05:11:31;;;;;;;29.15;17.35;;;3.10;90.90;;;;;;6206502;23;20049;-62
2022/01/27 05:14:20;;;;;;;26.48;16.38;;;3.10;90.90;;;;;;6209000;23;20012;-61
2022/01/27 05:16:42;;;;;;;26.05;15.38;;;3.10;91.00;;;;;;6207204;23;20012;-62
2022/01/27 05:19:08;;;;;;;27.30;16.23;;;3.10;90.90;;;;;;6209593;23;20103;-61
2022/01/27 05:21:33;;;;;;;26.10;15.88;;;3.10;90.90;;;;;;6209762;23;20035;-62
2022/01/27 05:24:00;;;;;;;31.63;15.88;;;3.10;90.90;;;;;;6207670;23;20013;-59
2022/01/27 05:26:25;;;;;;;27.05;15.85;;;3.10;90.90;;;;;;6205026;23;20088;-60
2022/01/27 05:28:51;;;;;;;27.92;17.60;;;3.10;90.90;;;;;;6182469;23;20032;-62
2022/01/27 05:31:16;;;;;;;72.93;20.20;;;3.10;90.90;;;;;;6182929;23;20007;-61
2022/01/27 05:33:42;;;;;;;65.53;21.13;;;3.10;90.90;;;;;;6209038;23;20020;-61
2022/01/27 05:36:07;;;;;;;54.47;18.77;;;3.00;90.90;;;;;;6210554;23;20008;-61
2022/01/27 05:38:35;;;;;;;60.92;18.55;;;3.10;91.00;;;;;;6206357;23;20427;-62
2022/01/27 05:41:01;;;;;;;52.63;17.30;;;3.00;91.00;;;;;;6181092;23;20008;-61
2022/01/27 05:43:26;;;;;;;43.58;18.65;;;3.00;91.00;;;;;;6184310;23;20008;-62
2022/01/27 05:45:52;;;;;;;78.55;20.25;;;3.10;91.00;;;;;;6210048;23;19996;-60
2022/01/27 05:48:17;;;;;;;75.55;20.45;;;3.10;91.00;;;;;;6208798;23;20005;-60
2022/01/27 05:50:43;;;;;;;118.25;22.83;;;3.00;91.00;;;;;;6209439;23;20059;-60
2022/01/27 05:53:08;;;;;;;134.23;21.23;;;3.00;91.00;;;;;;6181878;23;20011;-62
2022/01/27 05:55:34;;;;;;;91.40;21.02;;;3.00;91.20;;;;;;6184520;23;20058;-60
2022/01/27 05:57:59;;;;;;;78.78;20.95;;;3.00;91.20;;;;;;6213768;23;20000;-62
2022/01/27 06:00:25;;;;;;;112.80;25.75;;;2.90;91.10;;;;;;6239979;23;20004;-62
2022/01/27 06:02:51;;;;;;;121.53;23.08;;;3.00;91.10;;;;;;6239455;23;20311;-62
2022/01/27 06:05:16;;;;;;;112.13;22.83;;;3.00;91.20;;;;;;6235854;23;20001;-62
2022/01/27 06:07:42;;;;;;;109.65;21.92;;;2.90;91.20;;;;;;6236616;23;20040;-61
2022/01/27 06:10:07;;;;;;;99.03;23.33;;;2.90;91.20;;;;;;6239387;23;20614;-61
2022/01/27 06:12:33;;;;;;;85.50;23.38;;;2.90;91.20;;;;;;6213278;23;20497;-60
2022/01/27 06:14:58;;;;;;;86.55;22.58;;;2.90;91.20;;;;;;6188579;23;20187;-60
2022/01/27 06:17:24;;;;;;;84.90;25.33;;;2.90;91.20;;;;;;6237395;23;20079;-60
2022/01/27 06:19:54;;;;;;;78.47;22.33;;;2.90;91.30;;;;;;6211258;23;20115;-61
2022/01/27 06:22:20;;;;;;;78.47;22.58;;;2.90;91.20;;;;;;6212795;23;19996;-62
2022/01/27 06:24:45;;;;;;;102.38;22.70;;;2.90;91.30;;;;;;6213436;23;20059;-62
2022/01/27 06:27:11;;;;;;;77.57;22.48;;;2.90;91.30;;;;;;6207406;23;20857;-60
2022/01/27 06:29:37;;;;;;;75.95;21.95;;;2.90;91.30;;;;;;6158814;23;20338;-62
2022/01/27 06:32:03;;;;;;;63.85;21.25;;;2.90;91.30;;;;;;6210200;23;20450;-61
2022/01/27 06:34:28;;;;;;;71.80;21.02;;;2.90;91.30;;;;;;6212605;23;20008;-61
2022/01/27 06:36:54;;;;;;;73.63;21.15;;;2.90;91.30;;;;;;6214714;23;20079;-61
2022/01/27 06:39:19;;;;;;;77.85;21.67;;;2.90;91.20;;;;;;6214764;23;20306;-61
2022/01/27 06:41:45;;;;;;;80.45;21.80;;;2.90;91.50;;;;;;6241527;23;20015;-60
2022/01/27 06:44:11;;;;;;;73.40;21.83;;;2.90;91.20;;;;;;6211422;23;20381;-60
2022/01/27 06:46:36;;;;;;;68.88;20.85;;;2.90;91.20;;;;;;6185734;23;20000;-62
2022/01/27 06:49:05;;;;;;;59.35;21.23;;;2.80;91.20;;;;;;6240114;23;20080;-62
2022/01/27 06:51:31;;;;;;;68.35;20.73;;;3.20;91.30;;;;;;6189635;23;20394;-61
2022/01/27 06:53:57;;;;;;;47.40;19.95;;;2.90;91.20;;;;;;6189403;23;20062;-61
2022/01/27 06:56:23;;;;;;;88.65;21.58;;;2.80;91.20;;;;;;6187318;23;20023;-62
2022/01/27 06:58:49;;;;;;;59.67;21.85;;;2.80;91.30;;;;;;6238652;23;20020;-62
2022/01/27 07:01:14;;;;;;;82.88;22.75;;;2.80;91.30;;;;;;6239405;23;20087;-61
2022/01/27 07:03:40;;;;;;;63.92;22.52;;;2.80;91.30;;;;;;6188497;23;20000;-59
2022/01/27 07:06:05;;;;;;;70.20;21.77;;;2.80;91.30;;;;;;6214037;23;20000;-61
2022/01/27 07:08:31;;;;;;;63.88;20.13;;;2.80;91.20;;;;;;6186136;23;20004;-60
2022/01/27 07:10:56;;;;;;;63.60;21.13;;;2.90;91.20;;;;;;6236239;23;20441;-60
2022/01/27 07:13:21;;;;;;;67.10;21.50;;;2.80;91.20;;;;;;6211890;23;20005;-60
2022/01/27 07:15:47;;;;;;;59.83;21.35;;;2.80;91.20;;;;;;6212533;23;20189;-61
2022/01/27 07:18:13;;;;;;;57.53;19.70;;;2.80;91.20;;;;;;6237755;23;20004;-61
2022/01/27 07:20:38;;;;;;;80.47;20.35;;;2.70;91.20;;;;;;6211694;23;20082;-61
2022/01/27 07:23:06;;;;;;;66.95;20.98;;;2.80;91.20;;;;;;6234828;23;20368;-62
2022/01/27 07:25:32;;;;;;;59.58;20.40;;;2.70;91.20;;;;;;6184919;23;20015;-60
2022/01/27 07:27:57;;;;;;;66.80;22.20;;;2.70;91.20;;;;;;6233664;23;20016;-61
2022/01/27 07:30:23;;;;;;;67.43;20.27;;;2.70;91.10;;;;;;6186356;23;20058;-62
2022/01/27 07:32:48;;;;;;;66.40;20.60;;;2.70;91.10;;;;;;6237997;23;20483;-62
2022/01/27 07:35:14;;;;;;;53.55;19.77;;;2.70;91.20;;;;;;6208573;23;20004;-62
2022/01/27 07:37:42;;;;;;;56.05;18.92;;;2.70;91.20;;;;;;6179317;23;20001;-63
2022/01/27 07:40:08;;;;;;;63.10;20.95;;;2.70;91.20;;;;;;6235268;23;20347;-60
2022/01/27 07:42:34;;;;;;;66.88;21.58;;;2.70;91.20;;;;;;6185988;23;20008;-61
2022/01/27 07:44:59;;;;;;;63.90;20.58;;;2.60;91.20;;;;;;6235712;23;20409;-61
2022/01/27 07:47:25;;;;;;;55.47;19.42;;;2.70;91.30;;;;;;6236283;23;20452;-60
2022/01/27 07:49:50;;;;;;;66.95;21.30;;;2.70;91.20;;;;;;6179094;23;20004;-62
2022/01/27 07:52:18;;;;;;;61.22;21.00;;;2.70;91.20;;;;;;6235428;23;20012;-62
2022/01/27 07:54:43;;;;;;;70.32;21.45;;;2.70;91.20;;;;;;6234856;23;20028;-60
2022/01/27 07:57:09;;;;;;;76.05;20.98;;;2.50;91.20;;;;;;6160600;23;20043;-62
2022/01/27 07:59:34;;;;;;;51.63;18.70;;;2.60;91.20;;;;;;6238752;23;20011;-61
2022/01/27 08:02:01;;;;;;;54.60;20.48;;;2.60;91.20;;;;;;6209588;23;20004;-60
2022/01/27 08:04:26;;;;;;;71.47;20.15;;;2.60;91.20;;;;;;6233873;23;20473;-60
2022/01/27 08:06:52;;;;;;;49.53;20.17;;;2.60;91.20;;;;;;6209423;23;20019;-61
2022/01/27 08:09:17;;;;;;;43.70;19.85;;;2.60;91.20;;;;;;6235432;23;20047;-62
2022/01/27 08:11:43;;;;;;;58.05;20.20;;;2.60;91.20;;;;;;6209114;23;20079;-63
2022/01/27 08:14:08;;;;;;;74.40;20.98;;;2.60;91.20;;;;;;6237527;23;20071;-62
2022/01/27 08:16:34;;;;;;;65.40;21.33;;;2.60;91.20;;;;;;6209641;23;20043;-60
2022/01/27 08:19:00;;;;;;;47.20;18.40;;;2.60;91.20;;;;;;6208486;23;20012;-60
2022/01/27 08:21:25;;;;;;;45.78;19.15;;;2.60;91.20;;;;;;6183825;23;20741;-61
2022/01/27 08:23:52;;;;;;;65.70;20.50;;;2.60;91.30;;;;;;6209832;23;20307;-63
2022/01/27 08:26:29;;;;;;;60.05;19.05;;;2.60;91.20;;;;;;6210688;23;20004;-60
2022/01/27 08:29:07;;;;;;;72.00;20.48;;;2.60;91.30;;;;;;6210180;23;20035;-63
2022/01/27 08:31:42;;;;;;;59.67;20.63;;;2.60;91.30;;;;;;6238003;23;20043;-60
2022/01/27 08:34:14;;;;;;;45.58;20.30;;;2.70;91.30;;;;;;6191286;23;20375;-61
2022/01/27 08:36:40;;;;;;;64.72;20.25;;;2.90;91.30;;;;;;6214369;23;20011;-64
2022/01/27 08:39:05;;;;;;;59.92;20.70;;;2.70;91.30;;;;;;6239814;23;20004;-60
2022/01/27 08:41:30;;;;;;;60.70;20.38;;;2.70;91.30;;;;;;6240077;23;20008;-62
2022/01/27 08:43:56;;;;;;;50.28;20.58;;;2.60;91.30;;;;;;6238203;23;20019;-60
2022/01/27 08:46:21;;;;;;;45.67;19.67;;;2.60;91.30;;;;;;6209413;23;20330;-61
2022/01/27 08:48:47;;;;;;;54.28;18.48;;;2.70;91.30;;;;;;6212638;23;20008;-60
2022/01/27 08:51:14;;;;;;;59.20;19.23;;;2.70;91.30;;;;;;6211264;23;20007;-61
2022/01/27 08:53:40;;;;;;;56.95;19.17;;;2.70;91.30;;;;;;6211261;23;20026;-59
2022/01/27 08:56:05;;;;;;;52.38;20.85;;;2.70;91.30;;;;;;6186575;23;20438;-61
2022/01/27 08:58:34;;;;;;;58.30;18.65;;;2.70;91.30;;;;;;6237232;23;20045;-62
2022/01/27 09:01:01;;;;;;;52.42;19.80;;;2.70;91.30;;;;;;6184973;23;20422;-62
2022/01/27 09:03:28;;;;;;;45.15;18.80;;;2.70;91.30;;;;;;6183151;23;19996;-60
2022/01/27 09:05:53;;;;;;;63.00;19.42;;;2.80;91.40;;;;;;6207777;23;20134;-60
2022/01/27 09:08:18;;;;;;;44.25;18.38;;;2.80;91.40;;;;;;6207673;23;20028;-62
2022/01/27 09:10:46;;;;;;;50.30;19.63;;;2.80;91.40;;;;;;6235231;23;20102;-60
2022/01/27 09:13:12;;;;;;;48.13;18.92;;;2.80;91.40;;;;;;6238482;23;20008;-61
2022/01/27 09:15:37;;;;;;;50.33;19.00;;;2.80;91.40;;;;;;6210133;23;20161;-60
2022/01/27 09:18:03;;;;;;;42.60;19.38;;;2.80;91.40;;;;;;6238922;23;20036;-61
2022/01/27 09:20:29;;;;;;;64.03;19.40;;;2.90;91.40;;;;;;6212202;23;20037;-62
2022/01/27 09:22:57;;;;;;;64.03;20.58;;;2.90;91.40;;;;;;6212099;23;20008;-62
2022/01/27 09:25:29;;;;;;;65.85;20.20;;;2.90;91.50;;;;;;6210249;23;20004;-62
2022/01/27 09:27:56;;;;;;;50.60;20.73;;;2.90;91.50;;;;;;6213330;23;20084;-59
2022/01/27 09:30:21;;;;;;;47.70;19.42;;;2.90;91.50;;;;;;6188156;23;20000;-60
2022/01/27 09:32:47;;;;;;;65.75;21.48;;;3.00;91.50;;;;;;6211712;23;20007;-59
2022/01/27 09:35:13;;;;;;;75.15;19.90;;;3.00;91.50;;;;;;6186116;23;20031;-60
2022/01/27 09:37:39;;;;;;;65.53;20.10;;;3.00;91.50;;;;;;6184346;23;20008;-62
2022/01/27 09:40:06;;;;;;;57.90;19.05;;;3.00;91.50;;;;;;6209644;23;20012;-60
2022/01/27 09:42:34;;;;;;;62.72;19.65;;;3.00;91.60;;;;;;6236585;23;20023;-60
2022/01/27 09:45:02;;;;;;;64.60;18.42;;;3.10;91.60;;;;;;6212445;23;20438;-59
2022/01/27 09:47:30;;;;;;;46.53;19.02;;;3.10;91.60;;;;;;6210226;23;20074;-62
2022/01/27 09:50:06;;;;;;;62.28;19.45;;;2.90;91.50;;;;;;6183207;23;20313;-61
2022/01/27 09:52:32;;;;;;;58.17;19.98;;;3.20;91.60;;;;;;6187059;23;20125;-60
2022/01/27 09:54:58;;;;;;;61.38;19.73;;;3.10;91.60;;;;;;6237087;23;20411;-62
2022/01/27 09:57:24;;;;;;;64.38;19.73;;;3.20;91.60;;;;;;6212668;23;20464;-60
2022/01/27 09:59:49;;;;;;;58.47;19.85;;;3.20;91.70;;;;;;6184250;23;20274;-60
2022/01/27 10:02:21;;;;;;;63.50;20.77;;;3.20;91.80;;;;;;6185998;23;20000;-62
2022/01/27 10:04:54;;;;;;;55.35;20.27;;;3.30;91.80;;;;;;6209325;23;20027;-59
2022/01/27 10:07:22;;;;;;;55.55;17.58;;;3.30;91.80;;;;;;6237240;23;20004;-60
2022/01/27 10:10:04;;;;;;;50.50;20.33;;;3.30;91.80;;;;;;6237375;23;20151;-60
2022/01/27 10:12:43;;;;;;;52.30;19.75;;;3.30;91.80;;;;;;6213991;23;20065;-62
2022/01/27 10:15:18;;;;;;;57.35;20.55;;;3.30;92.00;;;;;;6209307;23;20398;-61
2022/01/27 10:18:10;;;;;;;54.50;20.05;;;3.40;92.00;;;;;;6186055;23;20099;-62
2022/01/27 10:20:37;;;;;;;74.60;21.35;;;3.40;92.10;;;;;;6207964;23;20375;-62
2022/01/27 10:23:16;;;;;;;57.15;19.05;;;3.40;92.20;;;;;;6156738;23;20012;-61
2022/01/27 10:25:46;;;;;;;61.42;19.25;;;3.40;92.20;;;;;;6207560;23;20004;-60
2022/01/27 10:28:34;;;;;;;50.28;19.92;;;3.50;92.20;;;;;;6186418;23;20020;-62
2022/01/27 10:31:05;;;;;;;76.05;21.63;;;3.50;92.30;;;;;;6183640;23;20012;-59
2022/01/27 10:33:44;;;;;;;72.15;20.33;;;3.50;92.20;;;;;;6236022;23;20004;-60
2022/01/27 10:36:26;;;;;;;74.50;20.70;;;3.50;92.20;;;;;;6211112;23;20055;-61
2022/01/27 10:38:56;;;;;;;96.65;22.95;;;3.50;92.30;;;;;;6210020;23;20123;-61
2022/01/27 10:41:26;;;;;;;89.20;21.23;;;3.60;92.40;;;;;;6209629;23;20008;-60
2022/01/27 10:44:04;;;;;;;75.40;22.48;;;3.60;92.30;;;;;;6185718;23;20008;-62
2022/01/27 10:46:31;;;;;;;70.00;20.48;;;3.60;92.20;;;;;;6184103;23;20004;-61
2022/01/27 10:51:28;;;;;;;57.47;20.42;;;3.70;92.30;;;;;;6210177;23;20062;-60
2022/01/27 10:56:29;;;;;;;91.60;22.20;;;3.70;92.40;;;;;;6209098;23;20342;-60
2022/01/27 10:58:56;;;;;;;74.30;22.77;;;3.80;92.60;;;;;;6183798;23;20068;-59
2022/01/27 11:01:23;;;;;;;101.70;25.05;;;3.80;92.60;;;;;;6185509;23;20473;-59
2022/01/27 11:03:49;;;;;;;107.28;22.95;;;3.80;92.50;;;;;;6211536;23;20015;-60
2022/01/27 11:06:15;;;;;;;93.80;23.42;;;3.80;92.50;;;;;;6233986;23;20000;-60
2022/01/27 11:08:42;;;;;;;73.80;21.35;;;3.90;92.60;;;;;;6181824;23;20020;-63
2022/01/27 11:11:08;;;;;;;85.97;23.25;;;3.90;92.50;;;;;;6209971;23;20334;-61
2022/01/27 11:13:35;;;;;;;82.75;22.52;;;3.90;92.40;;;;;;6209794;23;20027;-61
2022/01/27 11:16:03;;;;;;;82.47;23.35;;;3.90;92.30;;;;;;6211370;23;20004;-62
2022/01/27 11:18:29;;;;;;;79.60;21.60;;;4.00;92.30;;;;;;6207537;23;20008;-60
2022/01/27 11:20:59;;;;;;;88.95;23.02;;;3.90;92.30;;;;;;6184674;23;20004;-61
2022/01/27 11:26:06;;;;;;;73.20;22.50;;;4.00;92.30;;;;;;6188480;23;20452;-62
2022/01/27 11:28:33;;;;;;;89.47;21.55;;;4.00;92.30;;;;;;6236921;23;20026;-61
2022/01/27 11:31:25;;;;;;;83.28;22.13;;;4.00;92.20;;;;;;6210706;23;20552;-62
2022/01/27 11:34:07;;;;;;;96.20;23.30;;;4.00;92.20;;;;;;6208177;23;20576;-61
2022/01/27 11:36:33;;;;;;;78.82;21.50;;;4.00;92.20;;;;;;6181956;23;20087;-62
2022/01/27 11:38:59;;;;;;;85.43;21.83;;;4.00;92.20;;;;;;6207151;23;20062;-60
2022/01/27 11:41:39;;;;;;;119.60;24.63;;;4.10;92.20;;;;;;6209584;23;20367;-62
2022/01/27 11:44:32;;;;;;;77.30;22.27;;;4.10;92.20;;;;;;6233421;23;20027;-61
2022/01/27 11:47:24;;;;;;;94.97;24.05;;;4.10;92.20;;;;;;6231035;23;20088;-60
2022/01/27 11:50:59;;;;;;;76.55;20.33;;;4.10;92.10;;;;;;6201292;23;20015;-60
2022/01/27 11:52:53;;;;;;;84.18;22.63;;;4.10;92.10;;;;;;6200276;23;20155;-62
2022/01/27 11:55:24;;;;;;;79.78;22.38;;;4.10;92.00;;;;;;6179616;23;20016;-62
2022/01/27 11:57:57;;;;;;;98.05;23.88;;;4.10;92.10;;;;;;6234213;23;20050;-61
2022/01/27 12:00:26;;;;;;;113.43;25.58;;;4.20;92.10;;;;;;6206716;23;20445;-62
2022/01/27 12:03:01;;;;;;;114.70;25.98;;;4.20;92.10;;;;;;6183240;23;20015;-61
2022/01/27 12:05:28;;;;;;;102.13;24.73;;;4.20;92.10;;;;;;6237980;23;20036;-61
2022/01/27 12:08:09;;;;;;;135.02;25.63;;;4.20;92.10;;;;;;6187158;23;20000;-62
2022/01/27 12:10:57;;;;;;;98.03;24.95;;;4.20;92.10;;;;;;6236348;23;20397;-61
2022/01/27 12:18:42;;;;;;;98.35;22.45;;;4.30;92.10;;;;;;6239092;23;20004;-61
2022/01/27 12:21:32;;;;;;;80.00;22.50;;;4.30;92.00;;;;;;6237725;23;20098;-60
2022/01/27 12:24:14;;;;;;;141.07;26.92;;;4.30;92.00;;;;;;6237915;23;20003;-60
2022/01/27 12:27:02;;;;;;;100.78;23.35;;;4.30;92.00;;;;;;6237493;23;20027;-61
2022/01/27 12:29:32;;;;;;;102.28;24.95;;;4.30;92.00;;;;;;6214421;23;20004;-62
2022/01/27 12:31:59;;;;;;;103.80;23.85;;;4.40;92.00;;;;;;6240469;23;19996;-60
2022/01/27 12:34:25;;;;;;;80.32;21.65;;;4.40;92.00;;;;;;6213742;23;20378;-61
2022/01/27 12:37:02;;;;;;;122.47;23.40;;;4.40;92.00;;;;;;6188425;23;19996;-61
2022/01/27 12:39:31;;;;;;;104.38;24.45;;;4.40;91.90;;;;;;6213510;23;20054;-60
2022/01/27 12:41:58;;;;;;;137.35;26.75;;;4.40;91.90;;;;;;6211217;23;20069;-62
2022/01/27 12:44:26;;;;;;;101.78;23.80;;;4.40;91.90;;;;;;6212382;23;20071;-59
2022/01/27 12:47:00;;;;;;;140.35;28.13;;;4.40;91.80;;;;;;6188329;23;20031;-60
2022/01/27 12:49:43;;;;;;;138.88;28.35;;;4.40;91.80;;;;;;6213258;23;20008;-61
2022/01/27 12:52:10;;;;;;;149.05;28.52;;;4.40;91.90;;;;;;6210713;23;20008;-60
2022/01/27 12:54:36;;;;;;;134.77;27.08;;;4.50;91.90;;;;;;6186500;23;20004;-61
2022/01/27 12:57:03;;;;;;;131.20;27.55;;;4.40;91.80;;;;;;6187033;23;20039;-61
2022/01/27 12:59:36;;;;;;;138.48;28.15;;;4.50;91.90;;;;;;6186102;23;20399;-62
2022/01/27 13:02:06;;;;;;;127.40;28.50;;;4.50;91.90;;;;;;6237030;23;20008;-62
2022/01/27 13:04:32;;;;;;;120.00;26.20;;;4.50;91.80;;;;;;6186681;23;20011;-60
2022/01/27 13:06:58;;;;;;;117.38;24.40;;;4.50;91.70;;;;;;6209081;23;20009;-61
2022/01/27 13:09:23;;;;;;;130.90;25.05;;;4.50;91.60;;;;;;6206579;23;20008;-59
2022/01/27 13:11:52;;;;;;;139.05;26.80;;;4.50;91.60;;;;;;6209279;23;19996;-62
2022/01/27 13:14:17;;;;;;;123.28;25.55;;;4.50;91.60;;;;;;6188274;23;20004;-61
2022/01/27 13:16:48;;;;;;;135.95;25.20;;;4.50;91.70;;;;;;6209819;23;20433;-61
2022/01/27 13:19:28;;;;;;;149.45;26.90;;;4.50;91.70;;;;;;6211879;23;20011;-60
2022/01/27 13:22:07;;;;;;;115.20;25.80;;;4.60;91.70;;;;;;6190987;23;20523;-62
2022/01/27 13:24:35;;;;;;;119.97;24.98;;;4.60;91.70;;;;;;6234000;23;20012;-61
2022/01/27 13:27:12;;;;;;;130.25;26.40;;;4.60;91.70;;;;;;6185065;23;20563;-59
2022/01/27 13:29:41;;;;;;;153.27;29.05;;;4.60;91.70;;;;;;6187785;23;20012;-61
2022/01/27 13:32:07;;;;;;;133.57;25.65;;;4.70;91.80;;;;;;6186278;23;20016;-64